sensor_id;sensor_type;location;lat;lon;timestamp;pressure;altitude;pressure_sealevel;temperature;humidity
67015;BME280;1033;52.560;13.374;2023-02-15T00:02:32;102696.94;;;4.54;91.04
67015;BME280;1033;52.560;13.374;2023-02-15T00:05:02;102694.75;;;4.70;89.46
67015;BME280;1033;52.560;13.374;2023-02-15T00:07:36;102693.28;;;4.55;89.04
67015;BME280;1033;52.560;13.374;2023-02-15T00:10:07;102695.09;;;4.43;90.23
67015;BME280;1033;52.560;13.374;2023-02-15T00:12:39;102696.06;;;4.42;89.61
67015;BME280;1033;52.560;13.374;2023-02-15T00:15:10;102698.28;;;4.13;90.09
67015;BME280;1033;52.560;13.374;2023-02-15T00:17:41;102693.22;;;3.98;90.93
67015;BME280;1033;52.560;13.374;2023-02-15T00:20:12;102682.56;;;4.09;92.60
67015;BME280;1033;52.560;13.374;2023-02-15T00:22:47;102675.69;;;4.28;92.07
67015;BME280;1033;52.560;13.374;2023-02-15T00:25:18;102676.63;;;4.16;91.04
67015;BME280;1033;52.560;13.374;2023-02-15T00:27:48;102669.78;;;3.77;91.68
67015;BME280;1033;52.560;13.374;2023-02-15T00:30:20;102673.28;;;3.67;92.74
67015;BME280;1033;52.560;13.374;2023-02-15T00:32:51;102670.25;;;3.71;94.49
67015;BME280;1033;52.560;13.374;2023-02-15T00:35:21;102668.84;;;3.89;94.10
67015;BME280;1033;52.560;13.374;2023-02-15T00:37:53;102669.91;;;4.11;93.32
67015;BME280;1033;52.560;13.374;2023-02-15T00:40:30;102669.91;;;4.11;92.89
67015;BME280;1033;52.560;13.374;2023-02-15T00:43:02;102668.03;;;4.00;92.58
67015;BME280;1033;52.560;13.374;2023-02-15T00:45:32;102673.69;;;3.84;93.45
67015;BME280;1033;52.560;13.374;2023-02-15T00:48:04;102682.00;;;3.92;92.85
67015;BME280;1033;52.560;13.374;2023-02-15T00:50:35;102683.38;;;3.74;93.23
67015;BME280;1033;52.560;13.374;2023-02-15T00:53:07;102675.81;;;3.68;94.08
67015;BME280;1033;52.560;13.374;2023-02-15T00:55:38;102684.16;;;3.76;94.33
67015;BME280;1033;52.560;13.374;2023-02-15T00:58:10;102676.84;;;3.78;93.42
67015;BME280;1033;52.560;13.374;2023-02-15T01:00:42;102673.97;;;3.92;93.96
67015;BME280;1033;52.560;13.374;2023-02-15T01:03:13;102674.78;;;4.06;92.72
67015;BME280;1033;52.560;13.374;2023-02-15T01:05:44;102664.81;;;3.60;93.09
67015;BME280;1033;52.560;13.374;2023-02-15T01:08:18;102659.03;;;3.66;94.37
67015;BME280;1033;52.560;13.374;2023-02-15T01:10:49;102658.38;;;3.39;94.43
67015;BME280;1033;52.560;13.374;2023-02-15T01:13:20;102654.56;;;3.30;95.79
67015;BME280;1033;52.560;13.374;2023-02-15T01:15:54;102648.50;;;3.52;95.86
67015;BME280;1033;52.560;13.374;2023-02-15T01:18:26;102649.53;;;3.73;95.63
67015;BME280;1033;52.560;13.374;2023-02-15T01:20:58;102648.06;;;3.69;94.34
67015;BME280;1033;52.560;13.374;2023-02-15T01:23:33;102641.25;;;3.41;94.41
67015;BME280;1033;52.560;13.374;2023-02-15T01:26:04;102642.44;;;3.61;95.73
67015;BME280;1033;52.560;13.374;2023-02-15T01:28:34;102643.03;;;3.88;94.05
67015;BME280;1033;52.560;13.374;2023-02-15T01:31:06;102643.63;;;3.81;93.49
67015;BME280;1033;52.560;13.374;2023-02-15T01:33:40;102637.81;;;3.39;94.00
67015;BME280;1033;52.560;13.374;2023-02-15T01:36:11;102630.28;;;3.21;95.08
67015;BME280;1033;52.560;13.374;2023-02-15T01:38:43;102629.91;;;3.14;95.65
67015;BME280;1033;52.560;13.374;2023-02-15T01:41:14;102630.06;;;2.87;96.64
67015;BME280;1033;52.560;13.374;2023-02-15T01:43:53;102628.00;;;2.91;97.64
67015;BME280;1033;52.560;13.374;2023-02-15T01:46:28;102613.53;;;3.06;97.60
67015;BME280;1033;52.560;13.374;2023-02-15T01:49:05;102610.53;;;3.11;96.70
67015;BME280;1033;52.560;13.374;2023-02-15T01:51:41;102605.91;;;2.76;97.37
67015;BME280;1033;52.560;13.374;2023-02-15T01:54:21;102601.81;;;2.47;98.15
67015;BME280;1033;52.560;13.374;2023-02-15T01:56:55;102601.50;;;2.51;99.60
67015;BME280;1033;52.560;13.374;2023-02-15T01:59:32;102598.06;;;2.49;99.57
67015;BME280;1033;52.560;13.374;2023-02-15T02:02:06;102598.06;;;2.37;100.00
67015;BME280;1033;52.560;13.374;2023-02-15T02:04:41;102592.41;;;2.41;100.00
67015;BME280;1033;52.560;13.374;2023-02-15T02:07:15;102589.09;;;2.25;100.00
67015;BME280;1033;52.560;13.374;2023-02-15T02:09:49;102588.03;;;2.40;100.00
67015;BME280;1033;52.560;13.374;2023-02-15T02:12:24;102581.84;;;2.76;100.00
67015;BME280;1033;52.560;13.374;2023-02-15T02:14:56;102582.66;;;2.53;100.00
67015;BME280;1033;52.560;13.374;2023-02-15T02:18:02;102585.13;;;2.56;100.00
67015;BME280;1033;52.560;13.374;2023-02-15T02:20:52;102579.78;;;2.56;100.00
67015;BME280;1033;52.560;13.374;2023-02-15T02:23:39;102577.09;;;2.92;100.00
67015;BME280;1033;52.560;13.374;2023-02-15T02:30:11;102576.47;;;2.40;100.00
67015;BME280;1033;52.560;13.374;2023-02-15T02:33:10;102566.19;;;2.59;100.00
67015;BME280;1033;52.560;13.374;2023-02-15T02:35:50;102562.03;;;2.55;100.00
67015;BME280;1033;52.560;13.374;2023-02-15T02:38:34;102563.13;;;2.76;100.00
67015;BME280;1033;52.560;13.374;2023-02-15T02:41:16;102561.78;;;2.58;100.00
67015;BME280;1033;52.560;13.374;2023-02-15T02:43:51;102566.63;;;2.53;100.00
67015;BME280;1033;52.560;13.374;2023-02-15T02:46:48;102560.31;;;2.54;100.00
67015;BME280;1033;52.560;13.374;2023-02-15T02:49:35;102560.22;;;2.43;100.00
67015;BME280;1033;52.560;13.374;2023-02-15T02:52:32;102552.94;;;2.45;100.00
67015;BME280;1033;52.560;13.374;2023-02-15T02:54:59;102558.72;;;2.39;100.00
67015;BME280;1033;52.560;13.374;2023-02-15T02:57:32;102556.47;;;2.33;100.00
67015;BME280;1033;52.560;13.374;2023-02-15T03:00:05;102548.06;;;2.26;100.00
67015;BME280;1033;52.560;13.374;2023-02-15T03:02:39;102545.38;;;2.13;100.00
67015;BME280;1033;52.560;13.374;2023-02-15T03:05:17;102545.91;;;2.18;100.00
67015;BME280;1033;52.560;13.374;2023-02-15T03:07:51;102548.81;;;2.15;100.00
67015;BME280;1033;52.560;13.374;2023-02-15T03:10:24;102544.66;;;2.11;100.00
67015;BME280;1033;52.560;13.374;2023-02-15T03:12:55;102544.53;;;2.00;100.00
67015;BME280;1033;52.560;13.374;2023-02-15T03:15:31;102547.94;;;1.90;100.00
67015;BME280;1033;52.560;13.374;2023-02-15T03:18:18;102541.56;;;1.92;100.00
67015;BME280;1033;52.560;13.374;2023-02-15T03:20:50;102537.19;;;1.79;100.00
67015;BME280;1033;52.560;13.374;2023-02-15T03:23:23;102540.81;;;1.78;100.00
67015;BME280;1033;52.560;13.374;2023-02-15T03:25:58;102528.19;;;1.80;100.00
67015;BME280;1033;52.560;13.374;2023-02-15T03:28:36;102531.06;;;1.89;100.00
67015;BME280;1033;52.560;13.374;2023-02-15T03:31:10;102522.88;;;1.92;100.00
67015;BME280;1033;52.560;13.374;2023-02-15T03:33:53;102524.13;;;1.87;100.00
67015;BME280;1033;52.560;13.374;2023-02-15T03:36:28;102525.41;;;1.81;100.00
67015;BME280;1033;52.560;13.374;2023-02-15T03:39:10;102521.53;;;1.60;100.00
67015;BME280;1033;52.560;13.374;2023-02-15T03:41:54;102523.78;;;1.66;100.00
67015;BME280;1033;52.560;13.374;2023-02-15T03:44:29;102514.13;;;2.03;100.00
67015;BME280;1033;52.560;13.374;2023-02-15T03:47:04;102517.53;;;1.92;100.00
67015;BME280;1033;52.560;13.374;2023-02-15T03:49:40;102516.69;;;1.79;100.00
67015;BME280;1033;52.560;13.374;2023-02-15T03:52:15;102514.09;;;1.78;100.00
67015;BME280;1033;52.560;13.374;2023-02-15T03:54:46;102515.25;;;1.61;100.00
67015;BME280;1033;52.560;13.374;2023-02-15T03:57:21;102505.53;;;1.60;100.00
67015;BME280;1033;52.560;13.374;2023-02-15T04:00:13;102506.84;;;1.54;100.00
67015;BME280;1033;52.560;13.374;2023-02-15T04:03:17;102513.97;;;1.54;100.00
67015;BME280;1033;52.560;13.374;2023-02-15T04:05:53;102507.78;;;1.66;100.00
67015;BME280;1033;52.560;13.374;2023-02-15T04:08:23;102496.28;;;1.78;100.00
67015;BME280;1033;52.560;13.374;2023-02-15T04:11:14;102503.00;;;1.96;100.00
67015;BME280;1033;52.560;13.374;2023-02-15T04:13:44;102503.84;;;1.71;100.00
67015;BME280;1033;52.560;13.374;2023-02-15T04:16:15;102492.50;;;1.55;100.00
67015;BME280;1033;52.560;13.374;2023-02-15T04:18:45;102496.25;;;1.53;100.00
67015;BME280;1033;52.560;13.374;2023-02-15T04:21:33;102489.50;;;1.47;100.00
67015;BME280;1033;52.560;13.374;2023-02-15T04:24:22;102486.22;;;1.82;100.00
67015;BME280;1033;52.560;13.374;2023-02-15T04:27:17;102483.97;;;1.75;100.00
67015;BME280;1033;52.560;13.374;2023-02-15T04:29:49;102486.84;;;1.60;100.00
67015;BME280;1033;52.560;13.374;2023-02-15T04:32:20;102491.69;;;1.55;100.00
67015;BME280;1033;52.560;13.374;2023-02-15T04:34:51;102487.84;;;1.71;100.00
67015;BME280;1033;52.560;13.374;2023-02-15T04:37:21;102490.78;;;1.42;100.00
67015;BME280;1033;52.560;13.374;2023-02-15T04:39:52;102487.78;;;1.21;100.00
67015;BME280;1033;52.560;13.374;2023-02-15T04:42:22;102482.22;;;1.24;100.00
67015;BME280;1033;52.560;13.374;2023-02-15T04:44:54;102478.63;;;1.38;100.00
67015;BME280;1033;52.560;13.374;2023-02-15T04:47:25;102470.47;;;1.26;100.00
67015;BME280;1033;52.560;13.374;2023-02-15T04:49:56;102462.38;;;1.15;100.00
67015;BME280;1033;52.560;13.374;2023-02-15T04:52:26;102452.50;;;1.03;100.00
67015;BME280;1033;52.560;13.374;2023-02-15T04:54:59;102454.22;;;1.04;100.00
67015;BME280;1033;52.560;13.374;2023-02-15T04:57:29;102444.59;;;0.89;100.00
67015;BME280;1033;52.560;13.374;2023-02-15T05:00:00;102450.75;;;0.77;100.00
67015;BME280;1033;52.560;13.374;2023-02-15T05:02:31;102444.44;;;0.78;100.00
67015;BME280;1033;52.560;13.374;2023-02-15T05:05:01;102438.69;;;0.84;100.00
67015;BME280;1033;52.560;13.374;2023-02-15T05:07:32;102434.13;;;0.86;100.00
67015;BME280;1033;52.560;13.374;2023-02-15T05:10:02;102426.88;;;0.88;100.00
67015;BME280;1033;52.560;13.374;2023-02-15T05:12:35;102425.47;;;0.82;100.00
67015;BME280;1033;52.560;13.374;2023-02-15T05:15:10;102431.47;;;0.86;100.00
67015;BME280;1033;52.560;13.374;2023-02-15T05:17:41;102436.81;;;0.86;100.00
67015;BME280;1033;52.560;13.374;2023-02-15T05:20:13;102434.94;;;0.74;100.00
67015;BME280;1033;52.560;13.374;2023-02-15T05:22:45;102438.56;;;0.73;100.00
67015;BME280;1033;52.560;13.374;2023-02-15T05:25:17;102425.34;;;0.71;100.00
67015;BME280;1033;52.560;13.374;2023-02-15T05:28:08;102436.00;;;0.71;100.00
67015;BME280;1033;52.560;13.374;2023-02-15T05:31:03;102426.00;;;0.75;100.00
67015;BME280;1033;52.560;13.374;2023-02-15T05:33:34;102431.31;;;0.75;100.00
67015;BME280;1033;52.560;13.374;2023-02-15T05:36:06;102421.63;;;0.74;100.00
67015;BME280;1033;52.560;13.374;2023-02-15T05:38:39;102429.66;;;0.60;100.00
67015;BME280;1033;52.560;13.374;2023-02-15T05:41:11;102427.81;;;0.48;100.00
67015;BME280;1033;52.560;13.374;2023-02-15T05:43:42;102421.00;;;0.43;100.00
67015;BME280;1033;52.560;13.374;2023-02-15T05:46:14;102413.53;;;0.49;100.00
67015;BME280;1033;52.560;13.374;2023-02-15T05:48:46;102414.69;;;0.44;100.00
67015;BME280;1033;52.560;13.374;2023-02-15T05:51:17;102418.31;;;0.43;100.00
67015;BME280;1033;52.560;13.374;2023-02-15T05:53:50;102412.63;;;0.35;100.00
67015;BME280;1033;52.560;13.374;2023-02-15T05:56:21;102412.63;;;0.35;100.00
67015;BME280;1033;52.560;13.374;2023-02-15T05:58:53;102407.13;;;0.38;100.00
67015;BME280;1033;52.560;13.374;2023-02-15T06:01:27;102402.34;;;0.29;100.00
67015;BME280;1033;52.560;13.374;2023-02-15T06:03:58;102410.16;;;0.32;100.00
67015;BME280;1033;52.560;13.374;2023-02-15T06:06:30;102411.91;;;0.19;100.00
67015;BME280;1033;52.560;13.374;2023-02-15T06:09:02;102411.66;;;0.36;100.00
67015;BME280;1033;52.560;13.374;2023-02-15T06:11:34;102407.00;;;0.40;100.00
67015;BME280;1033;52.560;13.374;2023-02-15T06:14:05;102408.97;;;0.51;100.00
67015;BME280;1033;52.560;13.374;2023-02-15T06:16:47;102414.69;;;0.44;100.00
67015;BME280;1033;52.560;13.374;2023-02-15T06:19:19;102417.81;;;0.51;100.00
67015;BME280;1033;52.560;13.374;2023-02-15T06:21:51;102411.41;;;0.54;100.00
67015;BME280;1033;52.560;13.374;2023-02-15T06:24:22;102415.44;;;0.73;100.00
67015;BME280;1033;52.560;13.374;2023-02-15T06:26:52;102417.91;;;0.76;100.00
67015;BME280;1033;52.560;13.374;2023-02-15T06:29:22;102417.13;;;0.62;100.00
67015;BME280;1033;52.560;13.374;2023-02-15T06:31:54;102415.13;;;0.78;100.00
67015;BME280;1033;52.560;13.374;2023-02-15T06:34:25;102403.72;;;0.76;100.00
67015;BME280;1033;52.560;13.374;2023-02-15T06:36:55;102402.16;;;0.99;100.00
67015;BME280;1033;52.560;13.374;2023-02-15T06:39:26;102405.56;;;0.88;100.00
67015;BME280;1033;52.560;13.374;2023-02-15T06:41:58;102409.84;;;1.03;100.00
67015;BME280;1033;52.560;13.374;2023-02-15T06:44:29;102401.72;;;0.92;100.00
67015;BME280;1033;52.560;13.374;2023-02-15T06:47:01;102406.88;;;0.95;100.00
67015;BME280;1033;52.560;13.374;2023-02-15T06:49:32;102399.59;;;0.84;100.00
67015;BME280;1033;52.560;13.374;2023-02-15T06:52:03;102403.66;;;0.90;100.00
67015;BME280;1033;52.560;13.374;2023-02-15T06:54:41;102395.66;;;0.90;100.00
67015;BME280;1033;52.560;13.374;2023-02-15T06:57:11;102397.16;;;0.94;100.00
67015;BME280;1033;52.560;13.374;2023-02-15T06:59:42;102409.13;;;1.01;100.00
67015;BME280;1033;52.560;13.374;2023-02-15T07:02:14;102402.63;;;1.05;100.00
67015;BME280;1033;52.560;13.374;2023-02-15T07:04:48;102404.97;;;1.10;100.00
67015;BME280;1033;52.560;13.374;2023-02-15T07:07:19;102401.25;;;1.25;100.00
67015;BME280;1033;52.560;13.374;2023-02-15T07:09:50;102398.28;;;1.29;100.00
67015;BME280;1033;52.560;13.374;2023-02-15T07:12:20;102391.22;;;1.28;100.00
67015;BME280;1033;52.560;13.374;2023-02-15T07:15:10;102396.25;;;1.20;100.00
67015;BME280;1033;52.560;13.374;2023-02-15T07:17:45;102390.38;;;1.41;100.00
67015;BME280;1033;52.560;13.374;2023-02-15T07:20:18;102379.41;;;1.45;100.00
67015;BME280;1033;52.560;13.374;2023-02-15T07:22:50;102381.28;;;1.56;100.00
67015;BME280;1033;52.560;13.374;2023-02-15T07:25:21;102375.97;;;1.56;100.00
67015;BME280;1033;52.560;13.374;2023-02-15T07:27:56;102371.34;;;1.83;100.00
67015;BME280;1033;52.560;13.374;2023-02-15T07:30:27;102376.34;;;1.75;100.00
67015;BME280;1033;52.560;13.374;2023-02-15T07:33:01;102365.28;;;1.68;100.00
67015;BME280;1033;52.560;13.374;2023-02-15T07:35:50;102375.09;;;1.68;100.00
67015;BME280;1033;52.560;13.374;2023-02-15T07:38:23;102364.44;;;1.68;100.00
67015;BME280;1033;52.560;13.374;2023-02-15T07:40:58;102363.47;;;1.69;100.00
67015;BME280;1033;52.560;13.374;2023-02-15T07:43:33;102359.28;;;1.65;100.00
67015;BME280;1033;52.560;13.374;2023-02-15T07:46:08;102354.94;;;1.64;100.00
67015;BME280;1033;52.560;13.374;2023-02-15T07:48:44;102354.72;;;1.67;100.00
67015;BME280;1033;52.560;13.374;2023-02-15T07:51:16;102349.81;;;1.73;100.00
67015;BME280;1033;52.560;13.374;2023-02-15T07:53:53;102346.22;;;1.86;100.00
67015;BME280;1033;52.560;13.374;2023-02-15T07:56:24;102343.53;;;1.98;100.00
67015;BME280;1033;52.560;13.374;2023-02-15T07:58:59;102345.75;;;2.04;100.00
67015;BME280;1033;52.560;13.374;2023-02-15T08:01:35;102338.06;;;2.12;100.00
67015;BME280;1033;52.560;13.374;2023-02-15T08:04:11;102338.41;;;2.32;100.00
67015;BME280;1033;52.560;13.374;2023-02-15T08:06:43;102347.41;;;2.18;100.00
67015;BME280;1033;52.560;13.374;2023-02-15T08:09:14;102336.75;;;2.42;99.81
67015;BME280;1033;52.560;13.374;2023-02-15T08:11:47;102339.00;;;2.35;99.16
67015;BME280;1033;52.560;13.374;2023-02-15T08:14:19;102341.50;;;2.49;97.78
67015;BME280;1033;52.560;13.374;2023-02-15T08:16:52;102340.41;;;2.52;97.28
67015;BME280;1033;52.560;13.374;2023-02-15T08:19:28;102339.72;;;2.13;97.69
67015;BME280;1033;52.560;13.374;2023-02-15T08:22:01;102344.44;;;2.23;98.67
67015;BME280;1033;52.560;13.374;2023-02-15T08:24:34;102334.91;;;2.66;97.49
67015;BME280;1033;52.560;13.374;2023-02-15T08:27:06;102339.06;;;2.70;96.30
67015;BME280;1033;52.560;13.374;2023-02-15T08:29:38;102341.38;;;2.75;96.14
67015;BME280;1033;52.560;13.374;2023-02-15T08:32:11;102337.38;;;2.91;95.84
67015;BME280;1033;52.560;13.374;2023-02-15T08:34:44;102328.94;;;3.09;94.85
67015;BME280;1033;52.560;13.374;2023-02-15T08:37:14;102335.56;;;2.81;94.79
67015;BME280;1033;52.560;13.374;2023-02-15T08:39:44;102331.69;;;2.85;94.85
67015;BME280;1033;52.560;13.374;2023-02-15T08:42:16;102319.28;;;2.84;94.93
67015;BME280;1033;52.560;13.374;2023-02-15T08:44:49;102320.41;;;3.03;96.04
67015;BME280;1033;52.560;13.374;2023-02-15T08:47:23;102315.34;;;3.23;93.66
67015;BME280;1033;52.560;13.374;2023-02-15T08:49:57;102321.63;;;3.11;93.96
67015;BME280;1033;52.560;13.374;2023-02-15T08:52:32;102316.06;;;3.14;93.21
67015;BME280;1033;52.560;13.374;2023-02-15T08:55:22;102312.63;;;3.12;93.07
67015;BME280;1033;52.560;13.374;2023-02-15T08:57:59;102304.72;;;3.10;94.14
67015;BME280;1033;52.560;13.374;2023-02-15T09:00:38;102307.28;;;3.12;92.56
67015;BME280;1033;52.560;13.374;2023-02-15T09:03:18;102298.28;;;3.01;92.14
67015;BME280;1033;52.560;13.374;2023-02-15T09:06:16;102298.31;;;3.13;93.26
67015;BME280;1033;52.560;13.374;2023-02-15T09:08:56;102293.66;;;3.03;92.56
67015;BME280;1033;52.560;13.374;2023-02-15T09:11:34;102302.91;;;3.11;92.81
67015;BME280;1033;52.560;13.374;2023-02-15T09:14:09;102295.88;;;3.21;91.82
67015;BME280;1033;52.560;13.374;2023-02-15T09:16:43;102306.09;;;3.38;91.52
67015;BME280;1033;52.560;13.374;2023-02-15T09:19:14;102297.81;;;3.63;90.53
67015;BME280;1033;52.560;13.374;2023-02-15T09:21:47;102302.66;;;3.80;90.00
67015;BME280;1033;52.560;13.374;2023-02-15T09:24:18;102300.94;;;3.90;89.40
67015;BME280;1033;52.560;13.374;2023-02-15T09:26:48;102303.88;;;3.76;88.86
67015;BME280;1033;52.560;13.374;2023-02-15T09:29:18;102295.81;;;3.87;89.24
67015;BME280;1033;52.560;13.374;2023-02-15T09:31:50;102299.50;;;3.86;88.17
67015;BME280;1033;52.560;13.374;2023-02-15T09:34:32;102297.41;;;3.90;88.41
67015;BME280;1033;52.560;13.374;2023-02-15T09:45:21;102305.84;;;4.28;86.51
67015;BME280;1033;52.560;13.374;2023-02-15T09:48:23;102300.81;;;4.35;86.63
67015;BME280;1033;52.560;13.374;2023-02-15T09:55:33;102300.47;;;3.85;86.76
67015;BME280;1033;52.560;13.374;2023-02-15T09:58:12;102293.22;;;4.08;87.43
67015;BME280;1033;52.560;13.374;2023-02-15T10:00:53;102295.63;;;4.22;87.04
67015;BME280;1033;52.560;13.374;2023-02-15T10:03:40;102291.63;;;4.49;86.49
67015;BME280;1033;52.560;13.374;2023-02-15T10:06:23;102286.06;;;4.61;84.04
67015;BME280;1033;52.560;13.374;2023-02-15T10:09:05;102297.00;;;4.69;84.73
67015;BME280;1033;52.560;13.374;2023-02-15T10:11:52;102293.06;;;4.94;83.59
67015;BME280;1033;52.560;13.374;2023-02-15T10:17:28;102284.59;;;5.19;81.83
67015;BME280;1033;52.560;13.374;2023-02-15T10:20:09;102281.63;;;5.13;81.55
67015;BME280;1033;52.560;13.374;2023-02-15T10:22:49;102277.69;;;5.17;81.26
67015;BME280;1033;52.560;13.374;2023-02-15T10:25:31;102278.72;;;5.05;81.50
67015;BME280;1033;52.560;13.374;2023-02-15T10:28:06;102270.63;;;4.95;81.66
67015;BME280;1033;52.560;13.374;2023-02-15T10:30:42;102268.09;;;4.94;82.45
67015;BME280;1033;52.560;13.374;2023-02-15T10:33:24;102257.44;;;4.82;81.74
67015;BME280;1033;52.560;13.374;2023-02-15T10:36:10;102252.00;;;4.73;82.54
67015;BME280;1033;52.560;13.374;2023-02-15T10:38:42;102248.06;;;4.77;83.37
67015;BME280;1033;52.560;13.374;2023-02-15T10:41:30;102249.31;;;4.94;83.49
67015;BME280;1033;52.560;13.374;2023-02-15T10:44:20;102252.41;;;4.99;81.55
67015;BME280;1033;52.560;13.374;2023-02-15T10:47:16;102245.22;;;4.99;83.06
67015;BME280;1033;52.560;13.374;2023-02-15T10:50:03;102240.72;;;5.30;82.36
67015;BME280;1033;52.560;13.374;2023-02-15T10:56:02;102235.44;;;5.59;79.55
67015;BME280;1033;52.560;13.374;2023-02-15T10:58:43;102233.16;;;5.54;79.75
67015;BME280;1033;52.560;13.374;2023-02-15T11:01:24;102227.56;;;5.77;80.07
67015;BME280;1033;52.560;13.374;2023-02-15T11:04:27;102222.25;;;5.96;78.38
67015;BME280;1033;52.560;13.374;2023-02-15T11:07:02;102221.13;;;6.18;78.14
67015;BME280;1033;52.560;13.374;2023-02-15T11:09:37;102217.28;;;6.30;80.41
67015;BME280;1033;52.560;13.374;2023-02-15T11:12:12;102223.53;;;6.40;79.00
67015;BME280;1033;52.560;13.374;2023-02-15T11:14:46;102225.09;;;6.42;76.59
67015;BME280;1033;52.560;13.374;2023-02-15T11:17:23;102208.66;;;6.36;77.96
67015;BME280;1033;52.560;13.374;2023-02-15T11:19:58;102219.72;;;6.42;76.69
67015;BME280;1033;52.560;13.374;2023-02-15T11:22:33;102212.91;;;6.48;76.27
67015;BME280;1033;52.560;13.374;2023-02-15T11:25:05;102206.94;;;6.44;76.21
67015;BME280;1033;52.560;13.374;2023-02-15T11:27:44;102208.66;;;6.36;75.94
67015;BME280;1033;52.560;13.374;2023-02-15T11:30:18;102204.16;;;6.17;76.90
67015;BME280;1033;52.560;13.374;2023-02-15T11:32:52;102200.19;;;6.11;77.33
67015;BME280;1033;52.560;13.374;2023-02-15T11:35:29;102200.75;;;6.34;76.96
67015;BME280;1033;52.560;13.374;2023-02-15T11:38:05;102195.22;;;6.45;76.89
67015;BME280;1033;52.560;13.374;2023-02-15T11:40:40;102192.72;;;6.90;75.45
67015;BME280;1033;52.560;13.374;2023-02-15T11:43:15;102187.78;;;6.86;74.34
67015;BME280;1033;52.560;13.374;2023-02-15T11:45:46;102182.66;;;6.83;74.46
67015;BME280;1033;52.560;13.374;2023-02-15T11:48:17;102183.69;;;6.82;74.42
67015;BME280;1033;52.560;13.374;2023-02-15T11:50:46;102185.31;;;6.92;73.88
67015;BME280;1033;52.560;13.374;2023-02-15T11:53:17;102175.13;;;6.96;74.11
67015;BME280;1033;52.560;13.374;2023-02-15T11:55:50;102184.81;;;7.16;73.38
67015;BME280;1033;52.560;13.374;2023-02-15T11:58:28;102176.13;;;7.22;73.57
67015;BME280;1033;52.560;13.374;2023-02-15T12:01:02;102182.66;;;7.47;72.82
67015;BME280;1033;52.560;13.374;2023-02-15T12:03:45;102174.88;;;7.44;72.38
67015;BME280;1033;52.560;13.374;2023-02-15T12:06:26;102170.56;;;7.51;72.25
67015;BME280;1033;52.560;13.374;2023-02-15T12:09:02;102175.91;;;7.61;71.56
67015;BME280;1033;52.560;13.374;2023-02-15T12:11:36;102168.59;;;7.53;71.90
67015;BME280;1033;52.560;13.374;2023-02-15T12:14:06;102174.50;;;7.57;72.04
67015;BME280;1033;52.560;13.374;2023-02-15T12:16:42;102171.22;;;7.80;71.55
67015;BME280;1033;52.560;13.374;2023-02-15T12:19:28;102161.94;;;7.93;71.08
67015;BME280;1033;52.560;13.374;2023-02-15T12:21:58;102161.00;;;7.84;70.47
67015;BME280;1033;52.560;13.374;2023-02-15T12:24:29;102152.59;;;8.05;70.24
67015;BME280;1033;52.560;13.374;2023-02-15T12:27:02;102145.31;;;8.23;69.86
67015;BME280;1033;52.560;13.374;2023-02-15T12:29:39;102145.00;;;8.44;68.81
67015;BME280;1033;52.560;13.374;2023-02-15T12:32:16;102146.53;;;8.28;68.89
67015;BME280;1033;52.560;13.374;2023-02-15T12:34:48;102144.97;;;8.36;69.07
67015;BME280;1033;52.560;13.374;2023-02-15T12:37:23;102147.13;;;8.32;68.95
67015;BME280;1033;52.560;13.374;2023-02-15T12:39:55;102143.63;;;8.40;68.61
67015;BME280;1033;52.560;13.374;2023-02-15T12:42:26;102142.22;;;8.53;67.93
67015;BME280;1033;52.560;13.374;2023-02-15T12:44:59;102129.25;;;8.91;66.94
67015;BME280;1033;52.560;13.374;2023-02-15T12:47:30;102126.47;;;8.66;67.39
67015;BME280;1033;52.560;13.374;2023-02-15T12:50:13;102128.00;;;8.77;67.39
67015;BME280;1033;52.560;13.374;2023-02-15T12:52:48;102113.41;;;8.96;67.11
67015;BME280;1033;52.560;13.374;2023-02-15T12:55:22;102115.88;;;9.15;65.77
67015;BME280;1033;52.560;13.374;2023-02-15T12:58:06;102108.38;;;9.43;65.02
67015;BME280;1033;52.560;13.374;2023-02-15T13:00:35;102105.97;;;9.40;64.72
67015;BME280;1033;52.560;13.374;2023-02-15T13:03:13;102095.06;;;9.74;64.02
67015;BME280;1033;52.560;13.374;2023-02-15T13:05:48;102099.78;;;9.64;63.78
67015;BME280;1033;52.560;13.374;2023-02-15T13:08:21;102100.81;;;9.63;63.73
67015;BME280;1033;52.560;13.374;2023-02-15T13:10:56;102094.41;;;9.80;64.39
67015;BME280;1033;52.560;13.374;2023-02-15T13:13:28;102094.06;;;10.07;62.39
67015;BME280;1033;52.560;13.374;2023-02-15T13:15:59;102086.09;;;9.97;62.93
67015;BME280;1033;52.560;13.374;2023-02-15T13:18:34;102083.94;;;10.01;62.46
67015;BME280;1033;52.560;13.374;2023-02-15T13:21:10;102076.66;;;9.77;63.34
67015;BME280;1033;52.560;13.374;2023-02-15T13:23:44;102079.03;;;9.80;63.37
67015;BME280;1033;52.560;13.374;2023-02-15T13:26:18;102072.44;;;9.99;62.70
67015;BME280;1033;52.560;13.374;2023-02-15T13:28:51;102067.34;;;10.04;62.76
67015;BME280;1033;52.560;13.374;2023-02-15T13:31:24;102070.75;;;10.06;62.96
67015;BME280;1033;52.560;13.374;2023-02-15T13:33:58;102074.09;;;10.08;62.84
67015;BME280;1033;52.560;13.374;2023-02-15T13:36:34;102065.00;;;10.25;62.32
67015;BME280;1033;52.560;13.374;2023-02-15T13:39:18;102064.47;;;10.38;62.09
67015;BME280;1033;52.560;13.374;2023-02-15T13:41:56;102060.53;;;10.57;61.29
67015;BME280;1033;52.560;13.374;2023-02-15T13:44:47;102052.78;;;10.45;61.76
67015;BME280;1033;52.560;13.374;2023-02-15T13:47:24;102044.84;;;10.44;61.63
67015;BME280;1033;52.560;13.374;2023-02-15T13:50:11;102053.00;;;10.36;62.03
67015;BME280;1033;52.560;13.374;2023-02-15T13:52:53;102053.81;;;10.28;62.01
67015;BME280;1033;52.560;13.374;2023-02-15T13:55:37;102055.34;;;10.39;61.97
67015;BME280;1033;52.560;13.374;2023-02-15T14:01:10;102055.91;;;10.73;60.94
67015;BME280;1033;52.560;13.374;2023-02-15T14:04:06;102053.72;;;10.61;61.33
67015;BME280;1033;52.560;13.374;2023-02-15T14:06:54;102054.28;;;10.48;62.14